createdAt,value
2022-11-14T00:00:36.652Z,15.80
2022-11-14T00:03:43.872Z,15.73
2022-11-14T00:06:51.021Z,15.77
2022-11-14T00:09:58.281Z,15.90
2022-11-14T00:13:06.725Z,15.15
2022-11-14T00:16:13.532Z,15.20
2022-11-14T00:19:20.957Z,15.90
2022-11-14T00:22:28.122Z,15.68
2022-11-14T00:25:35.244Z,15.15
2022-11-14T00:28:43.889Z,15.10
2022-11-14T00:31:50.933Z,15.63
2022-11-14T00:34:58.114Z,15.93
2022-11-14T00:38:05.575Z,14.68
2022-11-14T00:41:12.917Z,15.43
2022-11-14T00:44:21.304Z,14.95
2022-11-14T00:47:28.437Z,14.40
2022-11-14T00:50:35.198Z,14.68
2022-11-14T00:53:42.475Z,13.70
2022-11-14T00:56:49.707Z,14.18
2022-11-14T00:59:58.310Z,13.43
2022-11-14T01:03:05.545Z,14.32
2022-11-14T01:06:14.611Z,13.40
2022-11-14T01:09:21.680Z,13.88
2022-11-14T01:12:29.171Z,13.90
2022-11-14T01:15:41.638Z,14.18
2022-11-14T01:18:48.891Z,13.50
2022-11-14T01:21:55.979Z,13.45
2022-11-14T01:25:03.045Z,13.60
2022-11-14T01:28:11.787Z,13.05
2022-11-14T01:31:22.147Z,12.70
2022-11-14T01:34:29.599Z,12.35
2022-11-14T01:37:36.422Z,12.60
2022-11-14T01:40:44.181Z,12.07
2022-11-14T01:43:51.447Z,12.57
2022-11-14T01:46:59.869Z,12.57
2022-11-14T01:50:07.893Z,11.70
2022-11-14T01:53:15.464Z,11.55
2022-11-14T01:56:26.848Z,11.65
2022-11-14T01:59:36.731Z,11.75
2022-11-14T02:02:45.920Z,12.00
2022-11-14T02:05:54.685Z,12.63
2022-11-14T02:09:06.096Z,12.25
2022-11-14T02:12:15.842Z,12.38
2022-11-14T02:15:23.178Z,13.75
2022-11-14T02:18:31.935Z,12.73
2022-11-14T02:21:40.804Z,13.30
2022-11-14T02:24:48.123Z,13.05
2022-11-14T02:27:56.811Z,12.98
2022-11-14T02:31:04.074Z,13.23
2022-11-14T02:34:11.045Z,13.68
2022-11-14T02:37:19.213Z,14.52
2022-11-14T02:40:26.407Z,14.85
2022-11-14T02:43:33.599Z,14.95
2022-11-14T02:46:41.134Z,14.68
2022-11-14T02:49:48.184Z,15.45
2022-11-14T02:52:57.220Z,15.98
2022-11-14T02:56:04.445Z,16.15
2022-11-14T02:59:11.954Z,16.17
2022-11-14T03:02:19.157Z,16.65
2022-11-14T03:05:26.154Z,17.10
2022-11-14T03:08:34.921Z,16.60
2022-11-14T03:11:41.945Z,15.88
2022-11-14T03:14:49.280Z,17.05
2022-11-14T03:17:56.115Z,16.48
2022-11-14T03:21:07.887Z,17.75
2022-11-14T03:24:16.444Z,17.50
2022-11-14T03:27:23.554Z,16.35
2022-11-14T03:30:31.446Z,15.68
2022-11-14T03:33:38.472Z,15.38
2022-11-14T03:36:45.900Z,14.30
2022-11-14T03:39:54.447Z,14.77
2022-11-14T03:43:01.522Z,14.23
2022-11-14T03:46:08.777Z,13.52
2022-11-14T03:49:15.763Z,13.23
2022-11-14T03:52:22.917Z,13.80
2022-11-14T03:55:31.430Z,13.38
2022-11-14T03:58:38.875Z,13.30
2022-11-14T04:01:46.445Z,13.52
2022-11-14T04:04:53.593Z,13.45
2022-11-14T04:08:01.068Z,13.77
2022-11-14T04:11:09.676Z,13.98
2022-11-14T04:14:16.887Z,13.45
2022-11-14T04:17:23.872Z,14.00
2022-11-14T04:20:31.221Z,13.20
2022-11-14T04:23:38.326Z,14.13
2022-11-14T04:26:47.083Z,13.05
2022-11-14T04:29:54.597Z,12.77
2022-11-14T04:33:01.682Z,12.23
2022-11-14T04:36:09.295Z,11.98
2022-11-14T04:39:16.461Z,11.98
2022-11-14T04:42:25.535Z,12.32
2022-11-14T04:45:32.654Z,11.90
2022-11-14T04:48:39.937Z,10.77
2022-11-14T04:51:47.114Z,10.23
2022-11-14T04:54:54.359Z,10.30
2022-11-14T04:58:02.955Z,10.40
2022-11-14T05:01:10.412Z,9.50
2022-11-14T05:04:17.507Z,9.48
2022-11-14T05:07:24.698Z,9.13
2022-11-14T05:10:32.142Z,10.52
2022-11-14T05:13:40.656Z,10.88
2022-11-14T05:16:47.689Z,11.07
2022-11-14T05:19:54.499Z,10.95
2022-11-14T05:23:01.780Z,10.55
2022-11-14T05:26:12.593Z,10.80
2022-11-14T05:29:21.491Z,10.48
2022-11-14T05:32:28.463Z,10.15
2022-11-14T05:35:35.842Z,9.75
2022-11-14T05:38:43.216Z,9.75
2022-11-14T05:41:50.162Z,9.73
2022-11-14T05:44:59.024Z,9.02
2022-11-14T05:48:07.075Z,9.18
2022-11-14T05:51:14.577Z,8.93
2022-11-14T05:54:21.740Z,8.40
2022-11-14T05:57:29.060Z,7.80
2022-11-14T06:00:44.346Z,9.00
2022-11-14T06:03:55.981Z,8.10
2022-11-14T06:07:03.180Z,8.68
2022-11-14T06:10:10.729Z,9.00
2022-11-14T06:13:17.790Z,8.88
2022-11-14T06:16:25.982Z,9.35
2022-11-14T06:19:33.193Z,9.13
2022-11-14T06:22:40.089Z,9.65
2022-11-14T06:25:46.938Z,9.85
2022-11-14T06:28:54.858Z,9.60
2022-11-14T06:32:04.042Z,10.05
2022-11-14T06:35:11.119Z,10.30
2022-11-14T06:38:18.015Z,8.93
2022-11-14T06:41:25.082Z,8.48
2022-11-14T06:44:32.290Z,8.40
2022-11-14T06:47:40.513Z,9.75
2022-11-14T06:50:53.279Z,9.05
2022-11-14T06:54:00.348Z,9.60
2022-11-14T06:57:07.653Z,9.30
2022-11-14T07:00:16.450Z,9.68
2022-11-14T07:03:25.413Z,9.75
2022-11-14T07:06:33.153Z,8.68
2022-11-14T07:09:40.665Z,9.32
2022-11-14T07:12:47.936Z,9.93
2022-11-14T07:15:55.563Z,9.63
2022-11-14T07:19:06.114Z,10.20
2022-11-14T07:22:13.285Z,10.32
2022-11-14T07:25:22.793Z,11.18
2022-11-14T07:28:30.749Z,10.18
2022-11-14T07:31:38.226Z,9.18
2022-11-14T07:34:46.985Z,9.45
2022-11-14T07:37:54.401Z,8.20
2022-11-14T07:41:03.479Z,9.25
2022-11-14T07:44:11.079Z,6.78
2022-11-14T07:47:18.305Z,7.20
2022-11-14T07:50:27.084Z,6.70
2022-11-14T07:53:35.480Z,6.40
2022-11-14T07:56:42.744Z,6.70
2022-11-14T07:59:49.876Z,6.55
2022-11-14T08:02:57.320Z,7.18
2022-11-14T08:06:07.772Z,7.38
2022-11-14T08:09:14.767Z,7.20
2022-11-14T08:12:21.601Z,6.82
2022-11-14T08:15:29.356Z,7.80
2022-11-14T08:18:36.729Z,7.32
2022-11-14T08:21:45.984Z,7.28
2022-11-14T08:24:53.048Z,7.10
2022-11-14T08:28:00.297Z,6.70
2022-11-14T18:11:14.075Z,15.52
2022-11-14T18:14:21.571Z,15.63
2022-11-14T18:17:28.630Z,16.42
2022-11-14T18:20:39.299Z,17.17
2022-11-14T18:23:51.891Z,16.75
2022-11-14T18:27:00.699Z,16.33
2022-11-14T18:30:39.791Z,16.98
2022-11-14T18:33:40.802Z,16.08
2022-11-14T18:36:48.498Z,16.38
2022-11-14T18:39:59.535Z,15.90
2022-11-14T18:43:08.150Z,16.08
2022-11-14T18:46:17.363Z,17.33
2022-11-14T18:49:25.279Z,15.70
2022-11-14T18:52:32.338Z,17.02
2022-11-14T18:55:40.461Z,16.17
2022-11-14T18:58:53.167Z,16.67
2022-11-14T19:02:00.735Z,16.77
2022-11-14T19:05:08.172Z,16.58
2022-11-14T19:08:15.398Z,16.42
2022-11-14T19:11:39.490Z,16.13
2022-11-14T19:14:50.022Z,16.80
2022-11-14T19:17:56.878Z,16.92
2022-11-14T19:21:06.164Z,17.38
2022-11-14T19:24:13.410Z,16.95
2022-11-14T19:27:22.054Z,17.55
2022-11-14T19:30:30.706Z,18.02
2022-11-14T19:33:40.851Z,17.83
2022-11-14T19:37:03.484Z,16.75
2022-11-14T19:40:11.593Z,17.88
2022-11-14T19:43:19.065Z,18.63
2022-11-14T19:46:29.220Z,17.65
2022-11-14T19:49:36.308Z,18.60
2022-11-14T19:52:43.420Z,18.75
2022-11-14T19:55:50.526Z,17.90
2022-11-14T19:58:57.775Z,18.92
2022-11-14T20:02:06.238Z,19.92
2022-11-14T20:05:13.723Z,20.05
2022-11-14T20:08:21.023Z,19.77
2022-11-14T20:11:29.306Z,19.70
2022-11-14T20:14:36.803Z,19.65
2022-11-14T20:17:45.069Z,20.33
2022-11-14T20:20:52.164Z,20.45
2022-11-14T20:23:59.468Z,20.30
2022-11-14T20:27:06.921Z,21.48
2022-11-14T20:30:14.846Z,21.02
2022-11-14T20:33:23.375Z,21.27
2022-11-14T20:36:49.963Z,21.95
2022-11-14T20:39:57.419Z,21.35
2022-11-14T20:43:04.550Z,21.52
2022-11-14T20:46:14.208Z,21.77
2022-11-14T20:49:22.447Z,21.95
2022-11-14T20:52:29.704Z,22.45
2022-11-14T20:55:36.671Z,20.92
2022-11-14T20:58:45.369Z,21.85
2022-11-14T21:01:52.253Z,21.77
2022-11-14T21:05:00.792Z,21.00
2022-11-14T21:08:07.932Z,21.00
2022-11-14T21:11:18.360Z,20.20
2022-11-14T21:14:25.371Z,21.13
2022-11-14T21:17:33.013Z,20.60
2022-11-14T21:20:41.535Z,20.95
2022-11-14T21:23:49.009Z,21.35
2022-11-14T21:26:56.072Z,21.80
2022-11-14T21:30:03.219Z,22.15
2022-11-14T21:33:10.570Z,21.45
2022-11-14T21:36:43.933Z,21.00
2022-11-14T21:39:51.286Z,20.92
2022-11-14T21:42:58.237Z,22.48
2022-11-14T21:46:08.017Z,20.80
2022-11-14T21:49:15.453Z,22.70
2022-11-14T21:52:24.003Z,23.60
2022-11-14T21:55:34.512Z,22.83
2022-11-14T21:58:42.491Z,23.98
2022-11-14T22:02:09.162Z,22.40
2022-11-14T22:05:16.918Z,21.75
2022-11-14T22:08:25.062Z,19.95
2022-11-14T22:11:32.061Z,19.13
2022-11-14T22:14:39.081Z,19.92
2022-11-14T22:17:46.216Z,19.02
2022-11-14T22:20:56.762Z,20.00
2022-11-14T22:24:05.925Z,18.63
2022-11-14T22:27:13.153Z,18.95
2022-11-14T22:30:20.547Z,16.95
2022-11-14T22:33:30.872Z,16.98
2022-11-14T22:36:38.304Z,16.40
2022-11-14T22:39:50.490Z,16.17
2022-11-14T22:42:57.461Z,16.33
2022-11-14T22:46:06.115Z,16.27
2022-11-14T22:49:16.021Z,16.33
2022-11-14T22:52:25.619Z,16.02
2022-11-14T22:55:34.599Z,17.00
2022-11-14T22:58:43.477Z,15.20
2022-11-14T23:01:50.445Z,15.93
2022-11-14T23:05:23.187Z,16.60
2022-11-14T23:08:30.573Z,16.25
2022-11-14T23:11:39.353Z,16.85
2022-11-14T23:14:46.608Z,16.60
2022-11-14T23:17:54.126Z,16.52
2022-11-14T23:21:05.491Z,17.60
2022-11-14T23:24:15.272Z,17.13
2022-11-14T23:27:24.135Z,17.98
2022-11-14T23:30:31.120Z,18.63
2022-11-14T23:33:38.380Z,18.67
2022-11-14T23:36:45.422Z,18.17
2022-11-14T23:39:52.484Z,18.42
2022-11-14T23:43:00.843Z,18.00
2022-11-14T23:46:08.448Z,19.15
2022-11-14T23:49:15.605Z,19.30
2022-11-14T23:52:22.908Z,18.77
2022-11-14T23:55:30.055Z,20.80
2022-11-14T23:58:38.759Z,20.23
